sensor_id;sensor_type;location;lat;lon;timestamp;pressure;altitude;pressure_sealevel;temperature;humidity
30708;BME280;17458;48.958;8.284;2022-11-15T00:03:00;100099.44;;;11.08;77.59
30708;BME280;17458;48.958;8.284;2022-11-15T00:06:04;100086.13;;;11.08;78.21
30708;BME280;17458;48.958;8.284;2022-11-15T00:09:07;100094.81;;;11.04;78.04
30708;BME280;17458;48.958;8.284;2022-11-15T00:12:10;100089.44;;;11.02;78.30
30708;BME280;17458;48.958;8.284;2022-11-15T00:15:13;100094.44;;;11.15;77.41
30708;BME280;17458;48.958;8.284;2022-11-15T00:18:19;100097.38;;;11.21;77.33
30708;BME280;17458;48.958;8.284;2022-11-15T00:21:22;100095.13;;;11.11;77.64
30708;BME280;17458;48.958;8.284;2022-11-15T00:24:27;100092.38;;;11.08;77.62
30708;BME280;17458;48.958;8.284;2022-11-15T00:27:30;100084.31;;;11.07;77.70
30708;BME280;17458;48.958;8.284;2022-11-15T00:30:32;100093.53;;;10.95;77.94
30708;BME280;17458;48.958;8.284;2022-11-15T00:33:35;100089.72;;;10.89;78.70
30708;BME280;17458;48.958;8.284;2022-11-15T00:36:39;100083.19;;;10.81;79.27
30708;BME280;17458;48.958;8.284;2022-11-15T00:39:42;100083.03;;;10.78;79.20
30708;BME280;17458;48.958;8.284;2022-11-15T00:42:45;100081.53;;;10.84;79.57
30708;BME280;17458;48.958;8.284;2022-11-15T00:45:48;100079.44;;;10.96;79.30
30708;BME280;17458;48.958;8.284;2022-11-15T00:48:51;100076.81;;;11.17;78.35
30708;BME280;17458;48.958;8.284;2022-11-15T00:51:54;100070.19;;;11.08;78.65
30708;BME280;17458;48.958;8.284;2022-11-15T00:54:57;100065.91;;;11.11;79.14
30708;BME280;17458;48.958;8.284;2022-11-15T00:58:00;100060.16;;;11.21;79.33
30708;BME280;17458;48.958;8.284;2022-11-15T01:01:12;100059.03;;;11.16;79.88
30708;BME280;17458;48.958;8.284;2022-11-15T01:04:15;100055.53;;;11.17;79.33
30708;BME280;17458;48.958;8.284;2022-11-15T01:07:18;100054.16;;;11.27;79.24
30708;BME280;17458;48.958;8.284;2022-11-15T01:10:22;100047.31;;;11.32;79.12
30708;BME280;17458;48.958;8.284;2022-11-15T01:13:25;100051.00;;;11.15;79.60
30708;BME280;17458;48.958;8.284;2022-11-15T01:16:28;100054.69;;;11.18;79.13
30708;BME280;17458;48.958;8.284;2022-11-15T01:19:31;100053.53;;;11.12;79.76
30708;BME280;17458;48.958;8.284;2022-11-15T01:22:34;100051.38;;;11.24;79.17
30708;BME280;17458;48.958;8.284;2022-11-15T01:25:37;100046.03;;;11.22;79.00
30708;BME280;17458;48.958;8.284;2022-11-15T01:28:41;100047.31;;;11.32;78.98
30708;BME280;17458;48.958;8.284;2022-11-15T01:31:44;100053.91;;;11.42;78.30
30708;BME280;17458;48.958;8.284;2022-11-15T01:34:47;100050.53;;;11.46;78.06
30708;BME280;17458;48.958;8.284;2022-11-15T01:37:50;100050.59;;;11.47;78.09
30708;BME280;17458;48.958;8.284;2022-11-15T01:40:52;100046.13;;;11.46;77.99
30708;BME280;17458;48.958;8.284;2022-11-15T01:47:21;100039.34;;;11.54;78.50
30708;BME280;17458;48.958;8.284;2022-11-15T01:50:29;100042.06;;;11.33;79.05
30708;BME280;17458;48.958;8.284;2022-11-15T01:53:34;100025.69;;;11.45;79.17
30708;BME280;17458;48.958;8.284;2022-11-15T01:56:44;100021.22;;;11.65;78.44
30708;BME280;17458;48.958;8.284;2022-11-15T01:59:48;100019.19;;;11.59;78.20
30708;BME280;17458;48.958;8.284;2022-11-15T02:02:52;100013.75;;;11.56;79.02
30708;BME280;17458;48.958;8.284;2022-11-15T02:05:54;100018.91;;;11.74;78.24
30708;BME280;17458;48.958;8.284;2022-11-15T02:09:10;100008.34;;;11.76;78.25
30708;BME280;17458;48.958;8.284;2022-11-15T02:12:19;100003.72;;;11.71;78.31
30708;BME280;17458;48.958;8.284;2022-11-15T02:15:32;99998.88;;;11.61;78.44
30708;BME280;17458;48.958;8.284;2022-11-15T02:18:41;99996.34;;;11.64;78.40
30708;BME280;17458;48.958;8.284;2022-11-15T02:38:08;99978.19;;;11.32;79.37
30708;BME280;17458;48.958;8.284;2022-11-15T02:44:38;99974.84;;;11.37;79.04
30708;BME280;17458;48.958;8.284;2022-11-15T02:47:44;99968.69;;;11.38;78.52
30708;BME280;17458;48.958;8.284;2022-11-15T02:50:48;99967.22;;;11.45;78.75
30708;BME280;17458;48.958;8.284;2022-11-15T02:53:51;99963.44;;;11.40;79.66
30708;BME280;17458;48.958;8.284;2022-11-15T02:56:58;99961.28;;;11.52;78.84
30708;BME280;17458;48.958;8.284;2022-11-15T03:00:06;99959.53;;;11.53;79.02
30708;BME280;17458;48.958;8.284;2022-11-15T03:06:30;99964.47;;;11.66;78.54
30708;BME280;17458;48.958;8.284;2022-11-15T03:09:42;99948.72;;;11.70;78.63
30708;BME280;17458;48.958;8.284;2022-11-15T03:16:04;99948.50;;;11.66;78.83
30708;BME280;17458;48.958;8.284;2022-11-15T03:19:22;99945.25;;;11.73;78.70
30708;BME280;17458;48.958;8.284;2022-11-15T03:22:34;99948.16;;;11.57;79.75
30708;BME280;17458;48.958;8.284;2022-11-15T03:25:41;99941.06;;;11.78;78.58
30708;BME280;17458;48.958;8.284;2022-11-15T03:28:53;99945.97;;;11.69;78.94
30708;BME280;17458;48.958;8.284;2022-11-15T03:32:19;99945.31;;;11.75;78.63
30708;BME280;17458;48.958;8.284;2022-11-15T03:35:25;99952.88;;;11.19;79.74
30708;BME280;17458;48.958;8.284;2022-11-15T03:38:31;99942.03;;;11.37;80.13
30708;BME280;17458;48.958;8.284;2022-11-15T03:41:46;99948.16;;;11.57;79.41
30708;BME280;17458;48.958;8.284;2022-11-15T03:44:59;99934.28;;;11.64;78.99
30708;BME280;17458;48.958;8.284;2022-11-15T03:48:21;99933.78;;;11.74;78.75
30708;BME280;17458;48.958;8.284;2022-11-15T03:51:25;99936.38;;;11.72;78.50
30708;BME280;17458;48.958;8.284;2022-11-15T03:54:28;99938.44;;;11.80;78.33
30708;BME280;17458;48.958;8.284;2022-11-15T03:57:31;99938.19;;;11.73;78.72
30708;BME280;17458;48.958;8.284;2022-11-15T04:00:34;99944.28;;;11.93;78.05
30708;BME280;17458;48.958;8.284;2022-11-15T04:03:37;99938.63;;;11.84;77.89
30708;BME280;17458;48.958;8.284;2022-11-15T04:06:40;99946.88;;;11.69;79.01
30708;BME280;17458;48.958;8.284;2022-11-15T04:09:43;99938.75;;;11.65;79.18
30708;BME280;17458;48.958;8.284;2022-11-15T04:13:05;99947.31;;;11.58;78.94
30708;BME280;17458;48.958;8.284;2022-11-15T04:16:08;99946.03;;;11.70;79.47
30708;BME280;17458;48.958;8.284;2022-11-15T04:19:11;99950.81;;;11.78;78.84
30708;BME280;17458;48.958;8.284;2022-11-15T04:22:32;99944.28;;;11.93;78.39
30708;BME280;17458;48.958;8.284;2022-11-15T04:25:55;99943.44;;;11.94;78.43
30708;BME280;17458;48.958;8.284;2022-11-15T04:28:59;99946.22;;;11.97;78.17
30708;BME280;17458;48.958;8.284;2022-11-15T04:32:20;99945.16;;;11.92;78.53
30708;BME280;17458;48.958;8.284;2022-11-15T04:35:23;99944.13;;;11.89;78.52
30708;BME280;17458;48.958;8.284;2022-11-15T04:38:26;99938.94;;;11.92;78.43
30708;BME280;17458;48.958;8.284;2022-11-15T04:41:29;99935.69;;;12.00;78.26
30708;BME280;17458;48.958;8.284;2022-11-15T04:44:32;99931.22;;;11.99;78.19
30708;BME280;17458;48.958;8.284;2022-11-15T04:47:35;99926.63;;;11.95;78.69
30708;BME280;17458;48.958;8.284;2022-11-15T04:50:38;99913.63;;;12.03;78.61
30708;BME280;17458;48.958;8.284;2022-11-15T04:53:41;99910.25;;;12.07;78.40
30708;BME280;17458;48.958;8.284;2022-11-15T04:56:44;99916.41;;;12.06;78.11
30708;BME280;17458;48.958;8.284;2022-11-15T04:59:46;99922.00;;;12.14;78.00
30708;BME280;17458;48.958;8.284;2022-11-15T05:02:50;99920.34;;;12.17;77.80
30708;BME280;17458;48.958;8.284;2022-11-15T05:06:11;99918.53;;;12.16;78.09
30708;BME280;17458;48.958;8.284;2022-11-15T05:09:14;99914.81;;;12.35;77.32
30708;BME280;17458;48.958;8.284;2022-11-15T05:12:17;99915.59;;;12.32;77.27
30708;BME280;17458;48.958;8.284;2022-11-15T05:15:20;99915.69;;;12.35;77.17
30708;BME280;17458;48.958;8.284;2022-11-15T05:18:23;99912.03;;;12.32;77.14
30708;BME280;17458;48.958;8.284;2022-11-15T05:21:26;99916.31;;;12.28;77.32
30708;BME280;17458;48.958;8.284;2022-11-15T05:24:29;99909.53;;;12.13;77.73
30708;BME280;17458;48.958;8.284;2022-11-15T05:27:33;99909.91;;;12.23;77.17
30708;BME280;17458;48.958;8.284;2022-11-15T05:30:37;99915.94;;;12.18;77.44
30708;BME280;17458;48.958;8.284;2022-11-15T05:33:40;99901.72;;;12.17;77.58
30708;BME280;17458;48.958;8.284;2022-11-15T05:36:43;99907.00;;;12.16;77.83
30708;BME280;17458;48.958;8.284;2022-11-15T05:39:48;99910.00;;;12.01;78.46
30708;BME280;17458;48.958;8.284;2022-11-15T05:42:51;99909.09;;;12.00;78.46
30708;BME280;17458;48.958;8.284;2022-11-15T05:45:53;99905.53;;;11.76;79.92
30708;BME280;17458;48.958;8.284;2022-11-15T05:48:57;99902.41;;;11.88;79.29
30708;BME280;17458;48.958;8.284;2022-11-15T05:52:03;99910.59;;;11.94;78.76
30708;BME280;17458;48.958;8.284;2022-11-15T05:55:09;99912.78;;;12.04;80.38
30708;BME280;17458;48.958;8.284;2022-11-15T05:58:12;99915.06;;;11.95;79.24
30708;BME280;17458;48.958;8.284;2022-11-15T06:01:15;99915.31;;;12.01;78.30
30708;BME280;17458;48.958;8.284;2022-11-15T06:04:18;99912.41;;;11.95;78.58
30708;BME280;17458;48.958;8.284;2022-11-15T06:07:21;99912.78;;;12.04;79.03
30708;BME280;17458;48.958;8.284;2022-11-15T06:10:24;99908.38;;;12.04;77.78
30708;BME280;17458;48.958;8.284;2022-11-15T06:13:27;99895.19;;;12.09;76.66
30708;BME280;17458;48.958;8.284;2022-11-15T06:16:30;99896.78;;;11.80;77.10
30708;BME280;17458;48.958;8.284;2022-11-15T06:19:33;99896.25;;;11.89;77.30
30708;BME280;17458;48.958;8.284;2022-11-15T06:22:35;99891.94;;;11.92;77.24
30708;BME280;17458;48.958;8.284;2022-11-15T06:25:38;99893.97;;;11.76;77.51
30708;BME280;17458;48.958;8.284;2022-11-15T06:28:41;99887.81;;;11.77;78.04
30708;BME280;17458;48.958;8.284;2022-11-15T06:31:44;99893.34;;;11.83;78.11
30708;BME280;17458;48.958;8.284;2022-11-15T06:34:47;99889.94;;;11.87;77.90
30708;BME280;17458;48.958;8.284;2022-11-15T06:37:50;99891.88;;;11.91;77.80
30708;BME280;17458;48.958;8.284;2022-11-15T06:40:53;99883.97;;;11.92;77.44
30708;BME280;17458;48.958;8.284;2022-11-15T06:43:57;99874.25;;;11.94;77.49
30708;BME280;17458;48.958;8.284;2022-11-15T06:46:59;99888.22;;;11.65;78.74
30708;BME280;17458;48.958;8.284;2022-11-15T06:50:02;99883.84;;;11.89;77.82
30708;BME280;17458;48.958;8.284;2022-11-15T06:53:05;99893.22;;;11.80;78.05
30708;BME280;17458;48.958;8.284;2022-11-15T06:56:08;99879.91;;;11.80;78.23
30708;BME280;17458;48.958;8.284;2022-11-15T06:59:11;99881.84;;;11.84;78.15
30708;BME280;17458;48.958;8.284;2022-11-15T07:02:14;99892.50;;;11.84;78.70
30708;BME280;17458;48.958;8.284;2022-11-15T07:05:17;99888.59;;;11.98;78.49
30708;BME280;17458;48.958;8.284;2022-11-15T07:08:21;99890.13;;;12.15;78.01
30708;BME280;17458;48.958;8.284;2022-11-15T07:11:24;99890.28;;;12.20;77.93
30708;BME280;17458;48.958;8.284;2022-11-15T07:14:26;99889.81;;;12.31;77.19
30708;BME280;17458;48.958;8.284;2022-11-15T07:17:29;99894.53;;;12.40;76.61
30708;BME280;17458;48.958;8.284;2022-11-15T07:20:33;99887.63;;;12.20;77.38
30708;BME280;17458;48.958;8.284;2022-11-15T07:23:37;99901.94;;;12.23;77.69
30708;BME280;17458;48.958;8.284;2022-11-15T07:26:40;99894.78;;;12.21;77.80
30708;BME280;17458;48.958;8.284;2022-11-15T07:29:43;99897.84;;;12.09;78.46
30708;BME280;17458;48.958;8.284;2022-11-15T07:32:46;99899.31;;;12.25;78.24
30708;BME280;17458;48.958;8.284;2022-11-15T07:35:48;99903.13;;;12.31;78.38
30708;BME280;17458;48.958;8.284;2022-11-15T07:38:51;99897.81;;;12.31;78.66
30708;BME280;17458;48.958;8.284;2022-11-15T07:41:54;99906.16;;;12.42;78.41
30708;BME280;17458;48.958;8.284;2022-11-15T07:45:17;99903.06;;;12.55;78.19
30708;BME280;17458;48.958;8.284;2022-11-15T07:48:20;99902.06;;;12.52;78.05
30708;BME280;17458;48.958;8.284;2022-11-15T07:51:23;99909.13;;;12.51;78.49
30708;BME280;17458;48.958;8.284;2022-11-15T07:54:26;99909.56;;;12.63;77.89
30708;BME280;17458;48.958;8.284;2022-11-15T07:57:29;99894.81;;;12.73;77.76
30708;BME280;17458;48.958;8.284;2022-11-15T08:00:33;99895.16;;;12.84;77.61
30708;BME280;17458;48.958;8.284;2022-11-15T08:03:36;99886.94;;;12.76;77.51
30708;BME280;17458;48.958;8.284;2022-11-15T08:06:40;99894.53;;;12.91;77.74
30708;BME280;17458;48.958;8.284;2022-11-15T08:09:42;99897.44;;;12.98;77.18
30708;BME280;17458;48.958;8.284;2022-11-15T08:12:45;99896.78;;;13.05;77.46
30708;BME280;17458;48.958;8.284;2022-11-15T08:15:48;99891.94;;;12.94;77.51
30708;BME280;17458;48.958;8.284;2022-11-15T08:18:51;99899.88;;;12.91;78.41
30708;BME280;17458;48.958;8.284;2022-11-15T08:21:54;99897.47;;;13.25;77.62
30708;BME280;17458;48.958;8.284;2022-11-15T08:24:56;99911.13;;;13.36;77.48
30708;BME280;17458;48.958;8.284;2022-11-15T08:28:02;99897.25;;;13.46;77.55
30708;BME280;17458;48.958;8.284;2022-11-15T08:31:05;99892.06;;;13.52;76.86
30708;BME280;17458;48.958;8.284;2022-11-15T08:34:08;99881.13;;;13.71;76.38
30708;BME280;17458;48.958;8.284;2022-11-15T08:37:11;99879.66;;;13.82;76.12
30708;BME280;17458;48.958;8.284;2022-11-15T08:40:14;99888.13;;;13.98;75.35
30708;BME280;17458;48.958;8.284;2022-11-15T08:43:17;99880.97;;;13.97;75.77
30708;BME280;17458;48.958;8.284;2022-11-15T08:46:20;99883.38;;;14.19;75.74
30708;BME280;17458;48.958;8.284;2022-11-15T08:49:23;99892.50;;;14.27;76.08
30708;BME280;17458;48.958;8.284;2022-11-15T08:52:26;99875.00;;;14.38;75.47
30708;BME280;17458;48.958;8.284;2022-11-15T08:55:29;99876.59;;;14.32;75.77
30708;BME280;17458;48.958;8.284;2022-11-15T08:58:32;99883.75;;;14.33;75.27
30708;BME280;17458;48.958;8.284;2022-11-15T09:01:35;99878.84;;;14.48;75.04
30708;BME280;17458;48.958;8.284;2022-11-15T09:04:42;99879.84;;;14.51;74.65
30708;BME280;17458;48.958;8.284;2022-11-15T09:07:45;99879.03;;;14.54;74.67
30708;BME280;17458;48.958;8.284;2022-11-15T09:10:48;99873.38;;;14.42;75.47
30708;BME280;17458;48.958;8.284;2022-11-15T09:13:51;99863.31;;;14.66;75.23
30708;BME280;17458;48.958;8.284;2022-11-15T09:16:54;99869.44;;;14.62;75.62
30708;BME280;17458;48.958;8.284;2022-11-15T09:19:57;99866.94;;;14.68;75.61
30708;BME280;17458;48.958;8.284;2022-11-15T09:23:01;99868.09;;;14.79;75.71
30708;BME280;17458;48.958;8.284;2022-11-15T09:26:05;99865.75;;;14.93;75.39
30708;BME280;17458;48.958;8.284;2022-11-15T09:29:09;99872.34;;;15.07;75.23
30708;BME280;17458;48.958;8.284;2022-11-15T09:32:11;99864.88;;;14.93;75.26
30708;BME280;17458;48.958;8.284;2022-11-15T09:35:14;99871.84;;;15.23;75.11
30708;BME280;17458;48.958;8.284;2022-11-15T09:38:18;99865.97;;;15.38;74.64
30708;BME280;17458;48.958;8.284;2022-11-15T09:44:44;99867.28;;;15.19;73.85
30708;BME280;17458;48.958;8.284;2022-11-15T09:51:51;99872.03;;;15.30;74.29
30708;BME280;17458;48.958;8.284;2022-11-15T09:54:49;99865.41;;;15.14;75.29
30708;BME280;17458;48.958;8.284;2022-11-15T09:58:03;99861.00;;;14.47;78.08
30708;BME280;17458;48.958;8.284;2022-11-15T10:00:51;99863.53;;;14.41;79.28
30708;BME280;17458;48.958;8.284;2022-11-15T10:03:38;99866.84;;;14.65;78.10
30708;BME280;17458;48.958;8.284;2022-11-15T10:06:26;99865.13;;;14.36;79.46
30708;BME280;17458;48.958;8.284;2022-11-15T10:09:25;99861.97;;;14.49;80.15
30708;BME280;17458;48.958;8.284;2022-11-15T10:12:13;99867.19;;;14.79;78.89
30708;BME280;17458;48.958;8.284;2022-11-15T10:15:05;99865.25;;;15.08;77.70
30708;BME280;17458;48.958;8.284;2022-11-15T10:18:16;99863.84;;;15.23;77.07
30708;BME280;17458;48.958;8.284;2022-11-15T10:21:17;99870.28;;;15.33;76.08
30708;BME280;17458;48.958;8.284;2022-11-15T10:24:01;99865.88;;;14.98;76.30
30708;BME280;17458;48.958;8.284;2022-11-15T10:26:48;99856.59;;;15.19;76.26
30708;BME280;17458;48.958;8.284;2022-11-15T10:29:32;99854.06;;;15.25;76.30
30708;BME280;17458;48.958;8.284;2022-11-15T10:32:19;99849.19;;;15.47;76.19
30708;BME280;17458;48.958;8.284;2022-11-15T10:35:39;99850.41;;;15.58;75.41
30708;BME280;17458;48.958;8.284;2022-11-15T10:38:23;99845.72;;;15.51;75.34
30708;BME280;17458;48.958;8.284;2022-11-15T10:41:07;99832.88;;;15.74;74.79
30708;BME280;17458;48.958;8.284;2022-11-15T10:47:04;99826.09;;;15.91;74.34
30708;BME280;17458;48.958;8.284;2022-11-15T10:52:45;99806.47;;;15.92;74.63
30708;BME280;17458;48.958;8.284;2022-11-15T10:55:31;99801.47;;;16.10;74.57
30708;BME280;17458;48.958;8.284;2022-11-15T11:01:24;99792.41;;;16.04;73.83
30708;BME280;17458;48.958;8.284;2022-11-15T11:04:09;99782.69;;;15.64;73.77
30708;BME280;17458;48.958;8.284;2022-11-15T11:06:54;99777.81;;;15.88;73.55
30708;BME280;17458;48.958;8.284;2022-11-15T11:09:39;99778.97;;;16.02;73.60
30708;BME280;17458;48.958;8.284;2022-11-15T11:12:32;99768.78;;;16.31;74.03
30708;BME280;17458;48.958;8.284;2022-11-15T11:15:17;99765.97;;;16.22;73.95
30708;BME280;17458;48.958;8.284;2022-11-15T11:18:18;99747.94;;;15.65;74.26
30708;BME280;17458;48.958;8.284;2022-11-15T11:21:10;99739.59;;;15.95;74.19
30708;BME280;17458;48.958;8.284;2022-11-15T11:27:23;99737.91;;;16.02;72.82
30708;BME280;17458;48.958;8.284;2022-11-15T11:30:20;99723.97;;;16.21;72.52
30708;BME280;17458;48.958;8.284;2022-11-15T11:33:13;99734.81;;;16.28;73.01
30708;BME280;17458;48.958;8.284;2022-11-15T11:39:08;99731.53;;;16.46;69.04
30708;BME280;17458;48.958;8.284;2022-11-15T11:48:30;99720.66;;;16.91;67.37
30708;BME280;17458;48.958;8.284;2022-11-15T11:51:33;99715.53;;;17.07;66.73
30708;BME280;17458;48.958;8.284;2022-11-15T12:00:26;99707.78;;;17.31;66.20
30708;BME280;17458;48.958;8.284;2022-11-15T12:03:30;99700.72;;;17.41;65.60
30708;BME280;17458;48.958;8.284;2022-11-15T12:06:42;99695.56;;;17.57;66.44
30708;BME280;17458;48.958;8.284;2022-11-15T12:09:36;99689.28;;;17.57;66.92
30708;BME280;17458;48.958;8.284;2022-11-15T12:12:39;99680.34;;;17.58;66.96
30708;BME280;17458;48.958;8.284;2022-11-15T12:15:28;99684.66;;;17.44;68.05
30708;BME280;17458;48.958;8.284;2022-11-15T12:18:15;99684.09;;;17.70;67.03
30708;BME280;17458;48.958;8.284;2022-11-15T12:21:19;99680.56;;;17.73;66.08
30708;BME280;17458;48.958;8.284;2022-11-15T12:24:14;99677.09;;;17.85;65.54
30708;BME280;17458;48.958;8.284;2022-11-15T12:27:09;99673.59;;;17.90;66.28
30708;BME280;17458;48.958;8.284;2022-11-15T12:30:00;99662.59;;;17.64;66.40
30708;BME280;17458;48.958;8.284;2022-11-15T12:32:58;99662.00;;;17.94;65.78
30708;BME280;17458;48.958;8.284;2022-11-15T12:35:43;99654.06;;;18.08;65.49
30708;BME280;17458;48.958;8.284;2022-11-15T12:41:44;99648.69;;;18.10;62.63
30708;BME280;17458;48.958;8.284;2022-11-15T12:47:31;99632.25;;;17.75;64.78
30708;BME280;17458;48.958;8.284;2022-11-15T12:50:15;99618.25;;;17.23;67.19
30708;BME280;17458;48.958;8.284;2022-11-15T12:56:20;99610.53;;;17.56;67.04
30708;BME280;17458;48.958;8.284;2022-11-15T12:59:06;99606.88;;;17.48;68.54
30708;BME280;17458;48.958;8.284;2022-11-15T13:01:57;99598.31;;;17.02;68.40
30708;BME280;17458;48.958;8.284;2022-11-15T13:04:42;99593.75;;;16.94;69.01
30708;BME280;17458;48.958;8.284;2022-11-15T13:13:07;99583.94;;;16.96;68.03
30708;BME280;17458;48.958;8.284;2022-11-15T13:15:58;99573.38;;;17.10;66.89
30708;BME280;17458;48.958;8.284;2022-11-15T13:18:43;99574.25;;;17.07;66.01
30708;BME280;17458;48.958;8.284;2022-11-15T13:21:48;99574.41;;;17.21;65.85
30708;BME280;17458;48.958;8.284;2022-11-15T13:24:52;99559.63;;;16.81;67.41
30708;BME280;17458;48.958;8.284;2022-11-15T13:27:36;99556.94;;;16.81;68.80
30708;BME280;17458;48.958;8.284;2022-11-15T13:30:28;99553.66;;;17.06;68.61
30708;BME280;17458;48.958;8.284;2022-11-15T13:36:08;99538.88;;;16.66;70.74
30708;BME280;17458;48.958;8.284;2022-11-15T13:39:01;99542.72;;;16.88;70.22
30708;BME280;17458;48.958;8.284;2022-11-15T13:41:48;99531.91;;;16.80;69.98
30708;BME280;17458;48.958;8.284;2022-11-15T13:44:33;99533.72;;;16.81;69.55
30708;BME280;17458;48.958;8.284;2022-11-15T13:47:19;99534.41;;;16.65;70.31
30708;BME280;17458;48.958;8.284;2022-11-15T13:50:04;99525.47;;;16.03;71.88
30708;BME280;17458;48.958;8.284;2022-11-15T13:52:49;99519.78;;;16.42;71.57
30708;BME280;17458;48.958;8.284;2022-11-15T13:55:34;99503.88;;;16.55;71.18
30708;BME280;17458;48.958;8.284;2022-11-15T13:58:18;99508.34;;;16.58;70.98
30708;BME280;17458;48.958;8.284;2022-11-15T14:01:04;99504.06;;;16.71;70.26
30708;BME280;17458;48.958;8.284;2022-11-15T14:03:55;99486.94;;;16.61;70.94
30708;BME280;17458;48.958;8.284;2022-11-15T14:06:47;99492.59;;;16.81;70.02
30708;BME280;17458;48.958;8.284;2022-11-15T14:09:37;99483.66;;;16.80;70.14
30708;BME280;17458;48.958;8.284;2022-11-15T14:12:33;99480.06;;;16.80;70.31
30708;BME280;17458;48.958;8.284;2022-11-15T14:15:36;99477.03;;;16.52;71.66
30708;BME280;17458;48.958;8.284;2022-11-15T14:18:44;99472.63;;;16.59;71.36
30708;BME280;17458;48.958;8.284;2022-11-15T14:21:28;99472.56;;;16.53;71.78
30708;BME280;17458;48.958;8.284;2022-11-15T14:24:20;99463.47;;;16.39;71.26
30708;BME280;17458;48.958;8.284;2022-11-15T14:27:24;99467.47;;;16.73;71.27
30708;BME280;17458;48.958;8.284;2022-11-15T14:30:16;99455.16;;;16.91;70.56
30708;BME280;17458;48.958;8.284;2022-11-15T14:33:00;99463.06;;;16.79;70.66
30708;BME280;17458;48.958;8.284;2022-11-15T14:35:44;99457.75;;;16.81;70.21
30708;BME280;17458;48.958;8.284;2022-11-15T14:38:28;99445.28;;;16.87;70.20
30708;BME280;17458;48.958;8.284;2022-11-15T14:41:22;99443.44;;;16.85;70.62
30708;BME280;17458;48.958;8.284;2022-11-15T14:44:10;99435.28;;;16.73;70.55
30708;BME280;17458;48.958;8.284;2022-11-15T14:46:54;99435.31;;;16.76;70.29
30708;BME280;17458;48.958;8.284;2022-11-15T14:49:38;99429.91;;;16.70;70.83
30708;BME280;17458;48.958;8.284;2022-11-15T14:52:31;99419.34;;;16.86;70.32
30708;BME280;17458;48.958;8.284;2022-11-15T14:55:21;99420.22;;;16.85;71.01
30708;BME280;17458;48.958;8.284;2022-11-15T14:58:07;99409.28;;;16.64;71.34
30708;BME280;17458;48.958;8.284;2022-11-15T15:00:52;99408.28;;;16.57;71.86
30708;BME280;17458;48.958;8.284;2022-11-15T15:03:36;99401.13;;;16.58;71.94
30708;BME280;17458;48.958;8.284;2022-11-15T15:06:20;99402.97;;;16.62;71.57
30708;BME280;17458;48.958;8.284;2022-11-15T15:09:03;99400.09;;;16.41;71.84
30708;BME280;17458;48.958;8.284;2022-11-15T15:11:47;99405.03;;;16.09;73.19
30708;BME280;17458;48.958;8.284;2022-11-15T15:14:31;99405.25;;;16.25;73.09
30708;BME280;17458;48.958;8.284;2022-11-15T15:17:16;99392.81;;;16.32;72.96
30708;BME280;17458;48.958;8.284;2022-11-15T15:20:00;99379.53;;;16.41;72.58
30708;BME280;17458;48.958;8.284;2022-11-15T15:22:44;99379.56;;;16.44;72.56
30708;BME280;17458;48.958;8.284;2022-11-15T15:25:33;99390.25;;;16.41;72.22
30708;BME280;17458;48.958;8.284;2022-11-15T15:28:18;99378.59;;;16.38;72.33
30708;BME280;17458;48.958;8.284;2022-11-15T15:31:02;99366.97;;;16.36;72.45
30708;BME280;17458;48.958;8.284;2022-11-15T15:33:46;99367.72;;;16.24;72.71
30708;BME280;17458;48.958;8.284;2022-11-15T15:36:30;99359.44;;;16.03;73.44
30708;BME280;17458;48.958;8.284;2022-11-15T15:39:14;99363.16;;;16.15;73.12
30708;BME280;17458;48.958;8.284;2022-11-15T15:41:58;99354.03;;;15.98;73.48
30708;BME280;17458;48.958;8.284;2022-11-15T15:44:42;99345.25;;;16.10;73.16
30708;BME280;17458;48.958;8.284;2022-11-15T15:47:26;99348.84;;;16.15;72.97
30708;BME280;17458;48.958;8.284;2022-11-15T15:50:34;99341.75;;;16.17;73.12
30708;BME280;17458;48.958;8.284;2022-11-15T15:53:18;99335.31;;;16.00;73.43
30708;BME280;17458;48.958;8.284;2022-11-15T15:56:02;99333.53;;;16.00;73.36
30708;BME280;17458;48.958;8.284;2022-11-15T15:58:47;99335.94;;;15.79;74.20
30708;BME280;17458;48.958;8.284;2022-11-15T16:01:30;99335.09;;;15.83;73.94
30708;BME280;17458;48.958;8.284;2022-11-15T16:04:14;99339.63;;;15.88;74.22
30708;BME280;17458;48.958;8.284;2022-11-15T16:07:00;99331.63;;;15.91;73.90
30708;BME280;17458;48.958;8.284;2022-11-15T16:09:44;99333.44;;;15.92;73.92
30708;BME280;17458;48.958;8.284;2022-11-15T16:12:47;99315.53;;;15.90;73.78
30708;BME280;17458;48.958;8.284;2022-11-15T16:15:31;99310.09;;;15.81;74.11
30708;BME280;17458;48.958;8.284;2022-11-15T16:18:16;99313.34;;;15.57;75.43
30708;BME280;17458;48.958;8.284;2022-11-15T16:21:00;99308.88;;;15.56;75.89
30708;BME280;17458;48.958;8.284;2022-11-15T16:23:44;99299.97;;;15.58;75.33
30708;BME280;17458;48.958;8.284;2022-11-15T16:26:29;99301.88;;;15.67;75.21
30708;BME280;17458;48.958;8.284;2022-11-15T16:29:13;99294.78;;;15.69;74.99
30708;BME280;17458;48.958;8.284;2022-11-15T16:31:57;99292.09;;;15.69;74.86
30708;BME280;17458;48.958;8.284;2022-11-15T16:34:41;99288.56;;;15.72;74.96
30708;BME280;17458;48.958;8.284;2022-11-15T16:37:25;99285.88;;;15.73;74.78
30708;BME280;17458;48.958;8.284;2022-11-15T16:40:30;99285.84;;;15.69;75.11
30708;BME280;17458;48.958;8.284;2022-11-15T16:43:15;99285.91;;;15.75;74.81
30708;BME280;17458;48.958;8.284;2022-11-15T16:46:08;99279.63;;;15.73;75.08
30708;BME280;17458;48.958;8.284;2022-11-15T16:48:53;99281.31;;;15.63;75.05
30708;BME280;17458;48.958;8.284;2022-11-15T16:51:37;99285.72;;;15.59;75.06
30708;BME280;17458;48.958;8.284;2022-11-15T16:54:22;99278.47;;;15.52;75.34
30708;BME280;17458;48.958;8.284;2022-11-15T16:57:08;99274.91;;;15.53;75.68
30708;BME280;17458;48.958;8.284;2022-11-15T16:59:53;99273.91;;;15.47;75.58
30708;BME280;17458;48.958;8.284;2022-11-15T17:02:37;99273.03;;;15.48;75.73
30708;BME280;17458;48.958;8.284;2022-11-15T17:05:23;99264.75;;;15.27;78.42
30708;BME280;17458;48.958;8.284;2022-11-15T17:08:07;99263.00;;;15.29;78.30